EST,Max TemperatureF,Mean TemperatureF,Min TemperatureF,Max Dew PointF,MeanDew PointF,Min DewpointF,Max Humidity, Mean Humidity, Min Humidity, Max Sea Level PressureIn, Mean Sea Level PressureIn, Min Sea Level PressureIn, Max VisibilityMiles, Mean VisibilityMiles, Min VisibilityMiles, Max Wind SpeedMPH, Mean Wind SpeedMPH, Max Gust SpeedMPH,PrecipitationIn, CloudCover, Events, WindDirDegrees
2012-1-1,68,49,30,52,38,30,100,75,33,30.17,30.06,29.89,10,10,7,16,3,21,0.00,2,,188
2012-1-2,50,41,32,32,21,12,100,48,27,30.06,30.00,29.93,10,10,10,17,6,24,0.00,2,,301
2012-1-3,35,30,26,14,8,3,51,40,28,30.27,30.14,30.05,10,10,10,18,10,30,0.00,1,,298
2012-1-4,44,30,17,18,12,9,86,53,23,30.40,30.28,30.13,10,10,10,12,2,,0.00,0,,205
2012-1-5,55,40,26,30,22,14,87,51,29,30.12,30.07,30.02,10,10,10,12,3,16,0.00,0,,267
2012-1-6,66,46,26,32,29,25,100,66,24,30.10,30.04,29.98,10,10,10,9,1,,0.00,0,,197
2012-1-7,69,50,32,48,39,28,100,72,40,30.02,29.98,29.94,10,10,10,14,2,16,0.00,1,Rain,227
2012-1-8,60,52,44,50,41,34,100,69,36,30.25,30.18,30.06,10,10,10,8,2,,0.00,7,Rain,40
2012-1-9,46,44,42,45,43,43,100,99,93,30.25,30.19,30.10,10,6,1,5,2,,0.00,8,Rain,49
2012-1-10,55,48,41,46,43,37,100,88,51,30.12,30.06,30.02,10,7,2,6,1,,0.00,4,,316
2012-1-11,59,50,42,59,48,43,100,98,87,30.01,29.85,29.55,10,6,1,8,1,,0.00,8,Rain,94
2012-1-12,59,52,44,46,44,43,93,77,59,29.68,29.61,29.54,10,10,10,17,8,24,0.00,2,,206
2012-1-13,55,44,32,46,22,16,77,52,39,30.02,29.85,29.54,10,10,10,23,13,34,0.00,1,,238
2012-1-14,44,32,21,27,21,18,93,65,34,30.22,30.14,30.07,10,10,10,10,2,,0.00,0,,238
2012-1-15,44,34,24,30,24,21,93,70,39,30.52,30.34,30.11,10,10,10,12,2,18,0.00,2,,344
2012-1-16,46,34,23,32,25,21,100,74,40,30.61,30.53,30.41,10,10,10,9,1,,0.00,2,,174
2012-1-17,64,48,33,52,43,32,100,74,56,30.35,30.14,29.95,10,10,10,20,7,29,0.00,4,Rain,201
2012-1-18,55,48,41,55,37,21,100,67,35,30.10,29.99,29.87,10,10,4,15,9,23,0.00,3,Rain,322
2012-1-19,48,38,28,34,25,19,81,60,43,30.23,30.14,30.06,10,10,10,8,4,,0.00,1,,70
2012-1-20,53,40,28,45,34,28,100,82,47,30.18,30.13,30.08,10,9,2,6,0,,0.00,3,Rain,169
2012-1-21,62,53,44,55,52,45,100,95,77,30.10,29.96,29.87,10,7,1,14,4,22,0.00,8,Rain,219
2012-1-22,39,36,33,36,34,32,100,92,81,30.38,30.31,30.18,10,10,4,14,9,22,0.00,8,,26
2012-1-23,50,44,37,50,41,36,100,97,93,30.31,30.15,30.03,10,4,1,6,1,,0.00,8,,319
2012-1-24,57,48,39,52,49,39,100,95,77,30.22,30.12,30.04,10,5,1,7,1,,0.00,6,Rain,240
2012-1-25,62,46,30,43,35,30,100,79,34,30.34,30.26,30.21,10,7,0,7,0,,0.00,1,Fog,114
2012-1-26,68,50,32,61,47,32,100,92,73,30.20,30.05,29.83,10,9,3,16,2,18,0.00,3,,171
2012-1-27,68,59,50,61,51,34,94,69,34,30.01,29.74,29.62,10,10,3,17,12,28,0.00,4,Rain,240
2012-1-28,62,46,30,39,34,30,100,72,32,30.12,30.07,30.02,10,10,10,8,1,,0.00,0,,237
2012-1-29,51,40,30,27,18,10,86,42,19,30.38,30.29,30.22,10,10,10,10,4,,0.00,1,,304
2012-1-30,60,43,26,30,24,19,87,57,22,30.45,30.35,30.27,10,10,10,10,2,,0.00,0,,243
2012-1-31,66,47,28,32,29,27,100,59,24,30.40,30.34,30.25,10,10,10,15,3,21,0.00,0,,213